ADDS METAR Data INFO
IDs: Format: Raw Decoded Include TAF

Data at: 1409 UTC 12 Dec 2017

KRIC 121354Z 20008KT 10SM BKN180 OVC220 04/01 A2963 RMK AO2 SLP040 T00440006
KRIC 121254Z 20007KT 10SM BKN180 OVC230 04/01 A2965 RMK AO2 SLP045 T00390006
KRIC 121154Z 21007KT 10SM BKN180 OVC230 04/00 A2966 RMK AO2 SLP049 T00390000 10050 20017 56022
KRIC 121054Z 20009KT 10SM FEW170 OVC220 04/00 A2968 RMK AO2 SLP056 T00440000
KRIC 120954Z 20009KT 10SM OVC170 04/00 A2970 RMK AO2 SLP063 T00440000
KRIC 120854Z 19010KT 10SM OVC150 04/M01 A2972 RMK AO2 SLP071 T00441006 58041
KRIC 120754Z 18008KT 10SM BKN120 OVC180 03/M01 A2978 RMK AO2 SLP089 T00331006
KRIC 120654Z 19008KT 10SM BKN120 BKN250 03/M01 A2982 RMK AO2 SLP104 T00281006
KRIC 120554Z 19005KT 10SM FEW150 BKN240 02/M01 A2985 RMK AO2 SLP113 T00221011 10044 20011 56031
KRIC 120454Z 17009KT 10SM FEW100 03/M01 A2987 RMK AO2 SLP120 T00281011 401000006
KRIC 120354Z 16005KT 10SM FEW100 03/M01 A2992 RMK AO2 SLP136 T00281011
KRIC 120254Z 15005KT 10SM FEW100 01/M02 A2994 RMK AO2 SLP144 T00111017 58011
KRIC 120154Z 00000KT 10SM CLR 03/M01 A2995 RMK AO2 SLP149 T00331011
KRIC 120054Z 14008KT 10SM CLR 02/M01 A2996 RMK AO2 SLP151 T00221011
KRIC 112354Z 16004KT 10SM CLR 02/M01 A2997 RMK AO2 SLP156 T00221011 10094 20022 56016
KRIC 112254Z 16004KT 10SM FEW100 04/M01 A2998 RMK AO2 SLP159 T00441011
KRIC 112154Z 15005KT 10SM FEW100 FEW300 07/M02 A2999 RMK AO2 SLP160 T00671017
KRIC 112054Z 20006KT 10SM FEW100 FEW300 08/M01 A3002 RMK AO2 SLP171 T00831006 53001
KRIC 111954Z 18008KT 10SM FEW300 09/M01 A3002 RMK AO2 SLP170 T00891011
KRIC 111854Z 18008KT 10SM FEW300 09/M01 A3002 RMK AO2 SLP170 T00891006
KRIC 111754Z 17003KT 10SM FEW300 09/M03 A3002 RMK AO2 SLP170 T00891033 10100 20006 58031
KRIC 111654Z 26005KT 10SM FEW300 09/M03 A3006 RMK AO2 SLP186 T00891028
KRIC 111554Z 27008KT 10SM FEW300 07/M03 A3010 RMK AO2 SLP198 T00721033
KRIC 111454Z 29011KT 10SM FEW060 06/M04 A3011 RMK AO2 SLP201 T00611039 51008
KRIC 111354Z 26007KT 10SM FEW060 03/M04 A3011 RMK AO2 SLP202 T00331039
KRIC 111254Z 26007KT 10SM FEW060 01/M04 A3010 RMK AO2 SLP200 T00111044
KRIC 111154Z 26007KT 10SM FEW150 01/M04 A3008 RMK AO2 SLP194 4/001 T00061044 10017 20006 53011
KRIC 111054Z 26008KT 10SM FEW150 01/M04 A3007 RMK AO2 SLP188 T00111044
KRIC 110954Z 25006KT 10SM SCT150 01/M04 A3005 RMK AO2 SLP182 T00061044
KRIC 110854Z 23005KT 10SM SCT150 01/M04 A3005 RMK AO2 SLP181 T00111039 56008
KRIC 110754Z 24005KT 10SM FEW095 BKN160 02/M03 A3005 RMK AO2 SLP182 T00171033
KRIC 110654Z 21005KT 10SM SCT095 OVC160 01/M03 A3007 RMK AO2 SLP188 T00061028
KRIC 110554Z 20008KT 10SM BKN095 01/M03 A3007 RMK AO2 SLP190 4/001 T00061028 10017 21006 57013
KRIC 110454Z 20007KT 10SM OVC100 01/M02 A3009 RMK AO2 SLP195 T00111022 400441017
KRIC 110354Z 20008KT 10SM OVC110 01/M02 A3010 RMK AO2 SLP199 T00111022
KRIC 110254Z 20008KT 10SM OVC100 01/M02 A3011 RMK AO2 SLP203 T00111022 52001